<?xml version="1.0" encoding="UTF-8" standalone="no" ?>
<gpx xmlns="http://www.topografix.com/GPX/1/1" xmlns:xsi="http://www.w3.org/2001/XMLSchema-instance" xsi:schemaLocation="http://www.topografix.com/GPX/1/1 http://www.topografix.com/GPX/1/1/gpx.xsd" version="1.1" creator="VisuGPX - https://www.visugpx.com">
  <metadata>
    <name>Pornichet_PlageBocageOcean_16-22km</name>
    <desc><![CDATA[gnerando idor:7072345_7959838_13291056]]></desc>
  </metadata>
  <trk>
    <name><![CDATA[Pornichet_PlageBocage_16.1km-7072345]]></name>
    <extensions>
      <line xmlns="http://www.topografix.com/GPX/gpx_style/0/2">
        <color>00FF00</color>
        <width>4</width>
      </line>
    </extensions>
    <trkseg>
      <trkpt lat="47.26697" lon="-2.33086">
        <ele>5</ele>
        <time>2023-11-11T06:34:52Z</time>
      </trkpt>
      <trkpt lat="47.2684" lon="-2.32858">
        <ele>8</ele>
        <time>2023-11-11T06:39:33Z</time>
      </trkpt>
      <trkpt lat="47.26773" lon="-2.32378">
        <ele>17</ele>
        <time>2023-11-11T06:46:57Z</time>
      </trkpt>
      <trkpt lat="47.26921" lon="-2.32352">
        <ele>9</ele>
        <time>2023-11-11T06:50:16Z</time>
      </trkpt>
      <trkpt lat="47.27011" lon="-2.32519">
        <ele>5</ele>
        <time>2023-11-11T06:53:29Z</time>
      </trkpt>
      <trkpt lat="47.27035" lon="-2.32451">
        <ele>3</ele>
        <time>2023-11-11T06:54:38Z</time>
      </trkpt>
      <trkpt lat="47.27026" lon="-2.3221">
        <ele>4</ele>
        <time>2023-11-11T06:58:17Z</time>
      </trkpt>
      <trkpt lat="47.26985" lon="-2.32146">
        <ele>6</ele>
        <time>2023-11-11T06:59:37Z</time>
      </trkpt>
      <trkpt lat="47.27017" lon="-2.32034">
        <ele>8</ele>
        <time>2023-11-11T07:01:27Z</time>
      </trkpt>
      <trkpt lat="47.27005" lon="-2.3197">
        <ele>11</ele>
        <time>2023-11-11T07:02:27Z</time>
      </trkpt>
      <trkpt lat="47.27093" lon="-2.31961">
        <ele>8</ele>
        <time>2023-11-11T07:04:24Z</time>
      </trkpt>
      <trkpt lat="47.27166" lon="-2.31991">
        <ele>7</ele>
        <time>2023-11-11T07:06:06Z</time>
      </trkpt>
      <trkpt lat="47.27221" lon="-2.31923">
        <ele>9</ele>
        <time>2023-11-11T07:07:41Z</time>
      </trkpt>
      <trkpt lat="47.27413" lon="-2.32022">
        <ele>6</ele>
        <time>2023-11-11T07:12:13Z</time>
      </trkpt>
      <trkpt lat="47.27495" lon="-2.31833">
        <ele>6</ele>
        <time>2023-11-11T07:15:36Z</time>
      </trkpt>
      <trkpt lat="47.27699" lon="-2.31026">
        <ele>16</ele>
        <time>2023-11-11T07:28:36Z</time>
      </trkpt>
      <trkpt lat="47.27576" lon="-2.30747">
        <ele>18</ele>
        <time>2023-11-11T07:33:37Z</time>
      </trkpt>
      <trkpt lat="47.27431" lon="-2.30047">
        <ele>28</ele>
        <time>2023-11-11T07:44:40Z</time>
      </trkpt>
      <trkpt lat="47.27282" lon="-2.29726">
        <ele>30</ele>
        <time>2023-11-11T07:50:32Z</time>
      </trkpt>
      <trkpt lat="47.27247" lon="-2.29532">
        <ele>32</ele>
        <time>2023-11-11T07:53:33Z</time>
      </trkpt>
      <trkpt lat="47.27174" lon="-2.29339">
        <ele>29</ele>
        <time>2023-11-11T07:56:54Z</time>
      </trkpt>
      <trkpt lat="47.2711" lon="-2.29241">
        <ele>30</ele>
        <time>2023-11-11T07:58:57Z</time>
      </trkpt>
      <trkpt lat="47.27171" lon="-2.29112">
        <ele>28</ele>
        <time>2023-11-11T08:01:19Z</time>
      </trkpt>
      <trkpt lat="47.27049" lon="-2.2903">
        <ele>30</ele>
        <time>2023-11-11T08:04:18Z</time>
      </trkpt>
      <trkpt lat="47.26921" lon="-2.28966">
        <ele>31</ele>
        <time>2023-11-11T08:07:18Z</time>
      </trkpt>
      <trkpt lat="47.26671" lon="-2.29223">
        <ele>37</ele>
        <time>2023-11-11T08:14:05Z</time>
      </trkpt>
      <trkpt lat="47.26481" lon="-2.29335">
        <ele>40</ele>
        <time>2023-11-11T08:18:38Z</time>
      </trkpt>
      <trkpt lat="47.26324" lon="-2.29258">
        <ele>39</ele>
        <time>2023-11-11T08:22:19Z</time>
      </trkpt>
      <trkpt lat="47.26167" lon="-2.29356">
        <ele>35</ele>
        <time>2023-11-11T08:26:07Z</time>
      </trkpt>
      <trkpt lat="47.26126" lon="-2.29464">
        <ele>33</ele>
        <time>2023-11-11T08:27:59Z</time>
      </trkpt>
      <trkpt lat="47.26184" lon="-2.2958">
        <ele>36</ele>
        <time>2023-11-11T08:30:09Z</time>
      </trkpt>
      <trkpt lat="47.25948" lon="-2.2964">
        <ele>25</ele>
        <time>2023-11-11T08:35:29Z</time>
      </trkpt>
      <trkpt lat="47.25992" lon="-2.29923">
        <ele>19</ele>
        <time>2023-11-11T08:39:52Z</time>
      </trkpt>
      <trkpt lat="47.2598" lon="-2.30133">
        <ele>20</ele>
        <time>2023-11-11T08:43:03Z</time>
      </trkpt>
      <trkpt lat="47.25896" lon="-2.30189">
        <ele>19</ele>
        <time>2023-11-11T08:45:06Z</time>
      </trkpt>
      <trkpt lat="47.2589" lon="-2.30262">
        <ele>20</ele>
        <time>2023-11-11T08:46:12Z</time>
      </trkpt>
      <trkpt lat="47.25709" lon="-2.30206">
        <ele>22</ele>
        <time>2023-11-11T08:50:19Z</time>
      </trkpt>
      <trkpt lat="47.25648" lon="-2.30318">
        <ele>21</ele>
        <time>2023-11-11T08:52:29Z</time>
      </trkpt>
      <trkpt lat="47.25584" lon="-2.30176">
        <ele>26</ele>
        <time>2023-11-11T08:55:03Z</time>
      </trkpt>
      <trkpt lat="47.25485" lon="-2.30202">
        <ele>27</ele>
        <time>2023-11-11T08:57:18Z</time>
      </trkpt>
      <trkpt lat="47.25468" lon="-2.30262">
        <ele>27</ele>
        <time>2023-11-11T08:58:17Z</time>
      </trkpt>
      <trkpt lat="47.25308" lon="-2.30206">
        <ele>28</ele>
        <time>2023-11-11T09:01:56Z</time>
      </trkpt>
      <trkpt lat="47.25069" lon="-2.30133">
        <ele>36</ele>
        <time>2023-11-11T09:07:22Z</time>
      </trkpt>
      <trkpt lat="47.25066" lon="-2.3006">
        <ele>36</ele>
        <time>2023-11-11T09:08:28Z</time>
      </trkpt>
      <trkpt lat="47.2492" lon="-2.30056">
        <ele>37</ele>
        <time>2023-11-11T09:11:43Z</time>
      </trkpt>
      <trkpt lat="47.24865" lon="-2.29841">
        <ele>37</ele>
        <time>2023-11-11T09:15:11Z</time>
      </trkpt>
      <trkpt lat="47.24588" lon="-2.29953">
        <ele>36</ele>
        <time>2023-11-11T09:21:34Z</time>
      </trkpt>
      <trkpt lat="47.24538" lon="-2.2988">
        <ele>35</ele>
        <time>2023-11-11T09:23:08Z</time>
      </trkpt>
      <trkpt lat="47.24463" lon="-2.29816">
        <ele>34</ele>
        <time>2023-11-11T09:25:04Z</time>
      </trkpt>
      <trkpt lat="47.24425" lon="-2.29687">
        <ele>34</ele>
        <time>2023-11-11T09:27:11Z</time>
      </trkpt>
      <trkpt lat="47.24329" lon="-2.29811">
        <ele>34</ele>
        <time>2023-11-11T09:30:02Z</time>
      </trkpt>
      <trkpt lat="47.24314" lon="-2.29897">
        <ele>33</ele>
        <time>2023-11-11T09:31:22Z</time>
      </trkpt>
      <trkpt lat="47.24163" lon="-2.29992">
        <ele>38</ele>
        <time>2023-11-11T09:35:01Z</time>
      </trkpt>
      <trkpt lat="47.24154" lon="-2.29867">
        <ele>43</ele>
        <time>2023-11-11T09:36:55Z</time>
      </trkpt>
      <trkpt lat="47.24084" lon="-2.29837">
        <ele>43</ele>
        <time>2023-11-11T09:38:32Z</time>
      </trkpt>
      <trkpt lat="47.24072" lon="-2.29781">
        <ele>42</ele>
        <time>2023-11-11T09:39:26Z</time>
      </trkpt>
      <trkpt lat="47.24017" lon="-2.29803">
        <ele>40</ele>
        <time>2023-11-11T09:40:42Z</time>
      </trkpt>
      <trkpt lat="47.24005" lon="-2.29562">
        <ele>36</ele>
        <time>2023-11-11T09:44:21Z</time>
      </trkpt>
      <trkpt lat="47.23962" lon="-2.29421">
        <ele>34</ele>
        <time>2023-11-11T09:46:41Z</time>
      </trkpt>
      <trkpt lat="47.23897" lon="-2.29314">
        <ele>32</ele>
        <time>2023-11-11T09:48:51Z</time>
      </trkpt>
      <trkpt lat="47.23816" lon="-2.29425">
        <ele>31</ele>
        <time>2023-11-11T09:51:18Z</time>
      </trkpt>
      <trkpt lat="47.23807" lon="-2.29683">
        <ele>32</ele>
        <time>2023-11-11T09:55:12Z</time>
      </trkpt>
      <trkpt lat="47.23801" lon="-2.2982">
        <ele>32</ele>
        <time>2023-11-11T09:57:17Z</time>
      </trkpt>
      <trkpt lat="47.23839" lon="-2.30035">
        <ele>29</ele>
        <time>2023-11-11T10:00:38Z</time>
      </trkpt>
      <trkpt lat="47.23772" lon="-2.3009">
        <ele>25</ele>
        <time>2023-11-11T10:02:20Z</time>
      </trkpt>
      <trkpt lat="47.23705" lon="-2.3006">
        <ele>24</ele>
        <time>2023-11-11T10:03:54Z</time>
      </trkpt>
      <trkpt lat="47.23676" lon="-2.30142">
        <ele>16</ele>
        <time>2023-11-11T10:05:18Z</time>
      </trkpt>
      <trkpt lat="47.23723" lon="-2.30253">
        <ele>12</ele>
        <time>2023-11-11T10:07:16Z</time>
      </trkpt>
      <trkpt lat="47.23781" lon="-2.30468">
        <ele>13</ele>
        <time>2023-11-11T10:10:46Z</time>
      </trkpt>
      <trkpt lat="47.23848" lon="-2.30704">
        <ele>10</ele>
        <time>2023-11-11T10:14:38Z</time>
      </trkpt>
      <trkpt lat="47.24023" lon="-2.30944">
        <ele>4</ele>
        <time>2023-11-11T10:19:57Z</time>
      </trkpt>
      <trkpt lat="47.2409" lon="-2.30961">
        <ele>8</ele>
        <time>2023-11-11T10:21:27Z</time>
      </trkpt>
      <trkpt lat="47.24107" lon="-2.31052">
        <ele>4</ele>
        <time>2023-11-11T10:22:53Z</time>
      </trkpt>
      <trkpt lat="47.24308" lon="-2.31459">
        <ele>5</ele>
        <time>2023-11-11T10:30:29Z</time>
      </trkpt>
      <trkpt lat="47.24367" lon="-2.31537">
        <ele>11</ele>
        <time>2023-11-11T10:32:15Z</time>
      </trkpt>
      <trkpt lat="47.24367" lon="-2.317">
        <ele>11</ele>
        <time>2023-11-11T10:34:42Z</time>
      </trkpt>
      <trkpt lat="47.24337" lon="-2.31755">
        <ele>7</ele>
        <time>2023-11-11T10:35:46Z</time>
      </trkpt>
      <trkpt lat="47.24436" lon="-2.31884">
        <ele>10</ele>
        <time>2023-11-11T10:38:43Z</time>
      </trkpt>
      <trkpt lat="47.24489" lon="-2.32009">
        <ele>6</ele>
        <time>2023-11-11T10:40:56Z</time>
      </trkpt>
      <trkpt lat="47.24582" lon="-2.32069">
        <ele>10</ele>
        <time>2023-11-11T10:43:12Z</time>
      </trkpt>
      <trkpt lat="47.24722" lon="-2.32292">
        <ele>7</ele>
        <time>2023-11-11T10:47:47Z</time>
      </trkpt>
      <trkpt lat="47.24911" lon="-2.32755">
        <ele>9</ele>
        <time>2023-11-11T10:55:56Z</time>
      </trkpt>
      <trkpt lat="47.25051" lon="-2.33146">
        <ele>8</ele>
        <time>2023-11-11T11:02:37Z</time>
      </trkpt>
      <trkpt lat="47.25243" lon="-2.33532">
        <ele>5</ele>
        <time>2023-11-11T11:09:50Z</time>
      </trkpt>
      <trkpt lat="47.25412" lon="-2.33734">
        <ele>5</ele>
        <time>2023-11-11T11:14:40Z</time>
      </trkpt>
      <trkpt lat="47.25506" lon="-2.33923">
        <ele>6</ele>
        <time>2023-11-11T11:18:13Z</time>
      </trkpt>
      <trkpt lat="47.25625" lon="-2.34047">
        <ele>5</ele>
        <time>2023-11-11T11:21:27Z</time>
      </trkpt>
      <trkpt lat="47.25669" lon="-2.3418">
        <ele>3</ele>
        <time>2023-11-11T11:23:41Z</time>
      </trkpt>
      <trkpt lat="47.25832" lon="-2.34172">
        <ele>5</ele>
        <time>2023-11-11T11:27:19Z</time>
      </trkpt>
      <trkpt lat="47.25913" lon="-2.3415">
        <ele>1</ele>
        <time>2023-11-11T11:29:09Z</time>
      </trkpt>
      <trkpt lat="47.25972" lon="-2.34116">
        <ele>4</ele>
        <time>2023-11-11T11:30:33Z</time>
      </trkpt>
      <trkpt lat="47.25992" lon="-2.3397">
        <ele>5</ele>
        <time>2023-11-11T11:32:48Z</time>
      </trkpt>
      <trkpt lat="47.2603" lon="-2.33837">
        <ele>3</ele>
        <time>2023-11-11T11:34:59Z</time>
      </trkpt>
      <trkpt lat="47.26074" lon="-2.3385">
        <ele>4</ele>
        <time>2023-11-11T11:35:59Z</time>
      </trkpt>
      <trkpt lat="47.26103" lon="-2.3379">
        <ele>4</ele>
        <time>2023-11-11T11:37:06Z</time>
      </trkpt>
      <trkpt lat="47.26076" lon="-2.33657">
        <ele>3</ele>
        <time>2023-11-11T11:39:11Z</time>
      </trkpt>
      <trkpt lat="47.26135" lon="-2.33528">
        <ele>3</ele>
        <time>2023-11-11T11:41:32Z</time>
      </trkpt>
      <trkpt lat="47.26155" lon="-2.33421">
        <ele>3</ele>
        <time>2023-11-11T11:43:13Z</time>
      </trkpt>
      <trkpt lat="47.26333" lon="-2.33391">
        <ele>2</ele>
        <time>2023-11-11T11:47:12Z</time>
      </trkpt>
      <trkpt lat="47.26475" lon="-2.333">
        <ele>1</ele>
        <time>2023-11-11T11:50:38Z</time>
      </trkpt>
      <trkpt lat="47.26502" lon="-2.33223">
        <ele>3</ele>
        <time>2023-11-11T11:51:57Z</time>
      </trkpt>
      <trkpt lat="47.26583" lon="-2.33172">
        <ele>2</ele>
        <time>2023-11-11T11:53:54Z</time>
      </trkpt>
      <trkpt lat="47.2672" lon="-2.33004">
        <ele>7</ele>
        <time>2023-11-11T11:57:52Z</time>
      </trkpt>
    </trkseg>
  </trk>
</gpx>